sensor_id;sensor_type;location;lat;lon;timestamp;temperature;humidity
30851;DHT22;17567;48.382;9.102;2023-05-07T00:01:13;13.00;99.90
30851;DHT22;17567;48.382;9.102;2023-05-07T00:06:14;13.00;99.90
30851;DHT22;17567;48.382;9.102;2023-05-07T00:11:15;13.10;99.90
30851;DHT22;17567;48.382;9.102;2023-05-07T00:16:15;13.10;99.90
30851;DHT22;17567;48.382;9.102;2023-05-07T00:21:16;13.10;99.90
30851;DHT22;17567;48.382;9.102;2023-05-07T00:26:17;13.00;99.90
30851;DHT22;17567;48.382;9.102;2023-05-07T00:31:17;12.90;99.90
30851;DHT22;17567;48.382;9.102;2023-05-07T00:46:23;12.90;99.90
30851;DHT22;17567;48.382;9.102;2023-05-07T00:51:25;12.80;99.90
30851;DHT22;17567;48.382;9.102;2023-05-07T00:56:27;12.70;99.90
30851;DHT22;17567;48.382;9.102;2023-05-07T01:01:28;12.70;99.90
30851;DHT22;17567;48.382;9.102;2023-05-07T01:06:29;12.70;99.90
30851;DHT22;17567;48.382;9.102;2023-05-07T01:11:31;12.70;99.90
30851;DHT22;17567;48.382;9.102;2023-05-07T01:16:31;12.60;99.90
30851;DHT22;17567;48.382;9.102;2023-05-07T01:21:33;12.50;99.90
30851;DHT22;17567;48.382;9.102;2023-05-07T01:26:35;12.50;99.90
30851;DHT22;17567;48.382;9.102;2023-05-07T01:31:36;12.60;99.90
30851;DHT22;17567;48.382;9.102;2023-05-07T01:36:38;12.60;99.90
30851;DHT22;17567;48.382;9.102;2023-05-07T01:41:40;12.50;99.90
30851;DHT22;17567;48.382;9.102;2023-05-07T01:46:40;12.60;99.90
30851;DHT22;17567;48.382;9.102;2023-05-07T01:51:41;12.60;99.90
30851;DHT22;17567;48.382;9.102;2023-05-07T01:56:42;12.60;99.90
30851;DHT22;17567;48.382;9.102;2023-05-07T02:01:43;12.50;99.90
30851;DHT22;17567;48.382;9.102;2023-05-07T02:06:43;12.60;99.90
30851;DHT22;17567;48.382;9.102;2023-05-07T02:11:44;12.50;99.90
30851;DHT22;17567;48.382;9.102;2023-05-07T02:16:45;12.50;99.90
30851;DHT22;17567;48.382;9.102;2023-05-07T02:21:45;12.40;99.90
30851;DHT22;17567;48.382;9.102;2023-05-07T02:26:46;12.30;99.90
30851;DHT22;17567;48.382;9.102;2023-05-07T02:31:47;12.40;99.90
30851;DHT22;17567;48.382;9.102;2023-05-07T02:36:51;12.20;99.90
30851;DHT22;17567;48.382;9.102;2023-05-07T02:41:51;12.20;99.90
30851;DHT22;17567;48.382;9.102;2023-05-07T02:46:52;12.10;99.90
30851;DHT22;17567;48.382;9.102;2023-05-07T02:51:52;12.10;99.90
30851;DHT22;17567;48.382;9.102;2023-05-07T02:56:53;12.10;99.90
30851;DHT22;17567;48.382;9.102;2023-05-07T03:01:53;12.20;99.90
30851;DHT22;17567;48.382;9.102;2023-05-07T03:06:54;12.20;99.90
30851;DHT22;17567;48.382;9.102;2023-05-07T03:11:55;11.80;99.90
30851;DHT22;17567;48.382;9.102;2023-05-07T03:16:56;11.70;99.90
30851;DHT22;17567;48.382;9.102;2023-05-07T03:21:57;11.50;99.90
30851;DHT22;17567;48.382;9.102;2023-05-07T03:26:57;11.70;99.90
30851;DHT22;17567;48.382;9.102;2023-05-07T03:31:58;11.70;99.90
30851;DHT22;17567;48.382;9.102;2023-05-07T03:36:59;11.60;99.90
30851;DHT22;17567;48.382;9.102;2023-05-07T03:41:59;11.50;99.90
30851;DHT22;17567;48.382;9.102;2023-05-07T03:47:01;11.30;99.90
30851;DHT22;17567;48.382;9.102;2023-05-07T03:52:01;11.20;99.90
30851;DHT22;17567;48.382;9.102;2023-05-07T03:57:02;11.20;99.90
30851;DHT22;17567;48.382;9.102;2023-05-07T04:02:03;11.00;99.90
30851;DHT22;17567;48.382;9.102;2023-05-07T04:07:03;11.10;99.90
30851;DHT22;17567;48.382;9.102;2023-05-07T04:12:04;11.20;99.90
30851;DHT22;17567;48.382;9.102;2023-05-07T04:17:05;11.10;99.90
30851;DHT22;17567;48.382;9.102;2023-05-07T04:22:09;10.90;99.90
30851;DHT22;17567;48.382;9.102;2023-05-07T04:27:10;10.80;99.90
30851;DHT22;17567;48.382;9.102;2023-05-07T04:32:11;10.80;99.90
30851;DHT22;17567;48.382;9.102;2023-05-07T04:37:11;10.80;99.90
30851;DHT22;17567;48.382;9.102;2023-05-07T04:42:15;10.80;99.90
30851;DHT22;17567;48.382;9.102;2023-05-07T04:47:16;10.80;99.90
30851;DHT22;17567;48.382;9.102;2023-05-07T04:52:17;10.80;99.90
30851;DHT22;17567;48.382;9.102;2023-05-07T04:57:17;10.90;99.90
30851;DHT22;17567;48.382;9.102;2023-05-07T05:02:18;10.90;99.90
30851;DHT22;17567;48.382;9.102;2023-05-07T05:07:19;10.90;99.90
30851;DHT22;17567;48.382;9.102;2023-05-07T05:12:19;10.90;99.90
30851;DHT22;17567;48.382;9.102;2023-05-07T05:22:23;11.40;99.90
30851;DHT22;17567;48.382;9.102;2023-05-07T05:27:24;11.60;99.90
30851;DHT22;17567;48.382;9.102;2023-05-07T05:32:25;11.70;99.90
30851;DHT22;17567;48.382;9.102;2023-05-07T05:37:26;11.90;99.90
30851;DHT22;17567;48.382;9.102;2023-05-07T05:42:29;12.60;99.90
30851;DHT22;17567;48.382;9.102;2023-05-07T05:47:30;12.50;99.90
30851;DHT22;17567;48.382;9.102;2023-05-07T05:52:30;12.70;99.90
30851;DHT22;17567;48.382;9.102;2023-05-07T05:57:31;12.80;99.90
30851;DHT22;17567;48.382;9.102;2023-05-07T06:02:31;12.90;99.90
30851;DHT22;17567;48.382;9.102;2023-05-07T06:07:32;13.10;99.90
30851;DHT22;17567;48.382;9.102;2023-05-07T06:12:32;13.30;99.90
30851;DHT22;17567;48.382;9.102;2023-05-07T06:17:33;13.40;99.90
30851;DHT22;17567;48.382;9.102;2023-05-07T06:22:34;13.60;99.90
30851;DHT22;17567;48.382;9.102;2023-05-07T06:27:35;13.90;99.90
30851;DHT22;17567;48.382;9.102;2023-05-07T06:32:36;14.00;99.90
30851;DHT22;17567;48.382;9.102;2023-05-07T06:37:37;14.10;99.90
30851;DHT22;17567;48.382;9.102;2023-05-07T06:42:42;14.20;99.90
30851;DHT22;17567;48.382;9.102;2023-05-07T06:47:43;14.30;99.90
30851;DHT22;17567;48.382;9.102;2023-05-07T06:52:43;14.30;99.90
30851;DHT22;17567;48.382;9.102;2023-05-07T06:57:44;14.40;99.90
30851;DHT22;17567;48.382;9.102;2023-05-07T07:02:45;14.50;99.90
30851;DHT22;17567;48.382;9.102;2023-05-07T07:07:46;14.60;99.90
30851;DHT22;17567;48.382;9.102;2023-05-07T07:12:52;14.60;99.90
30851;DHT22;17567;48.382;9.102;2023-05-07T07:17:53;14.70;99.90
30851;DHT22;17567;48.382;9.102;2023-05-07T07:22:54;14.80;99.90
30851;DHT22;17567;48.382;9.102;2023-05-07T07:27:55;14.90;99.90
30851;DHT22;17567;48.382;9.102;2023-05-07T07:32:55;15.10;99.90
30851;DHT22;17567;48.382;9.102;2023-05-07T07:38:02;15.30;99.90
30851;DHT22;17567;48.382;9.102;2023-05-07T07:43:03;15.60;99.90
30851;DHT22;17567;48.382;9.102;2023-05-07T07:48:03;15.90;99.90
30851;DHT22;17567;48.382;9.102;2023-05-07T07:53:04;16.10;99.90
30851;DHT22;17567;48.382;9.102;2023-05-07T07:58:05;16.40;99.90
30851;DHT22;17567;48.382;9.102;2023-05-07T08:03:08;16.70;99.90
30851;DHT22;17567;48.382;9.102;2023-05-07T08:08:09;16.90;99.90
30851;DHT22;17567;48.382;9.102;2023-05-07T08:13:10;17.30;99.90
30851;DHT22;17567;48.382;9.102;2023-05-07T08:18:10;17.60;99.90
30851;DHT22;17567;48.382;9.102;2023-05-07T08:23:11;18.00;99.90
30851;DHT22;17567;48.382;9.102;2023-05-07T11:14:54;19.30;99.90
30851;DHT22;17567;48.382;9.102;2023-05-07T11:19:56;19.00;99.90
30851;DHT22;17567;48.382;9.102;2023-05-07T11:24:59;18.90;99.90
30851;DHT22;17567;48.382;9.102;2023-05-07T11:30:00;18.70;99.90
30851;DHT22;17567;48.382;9.102;2023-05-07T11:35:01;18.80;99.90
30851;DHT22;17567;48.382;9.102;2023-05-07T11:40:08;18.90;99.90
30851;DHT22;17567;48.382;9.102;2023-05-07T11:45:10;19.00;99.90
30851;DHT22;17567;48.382;9.102;2023-05-07T11:50:11;18.90;99.90
30851;DHT22;17567;48.382;9.102;2023-05-07T11:55:12;19.00;99.90
30851;DHT22;17567;48.382;9.102;2023-05-07T12:00:16;18.90;99.90
30851;DHT22;17567;48.382;9.102;2023-05-07T12:05:16;18.60;99.90
30851;DHT22;17567;48.382;9.102;2023-05-07T12:10:17;18.60;99.90
30851;DHT22;17567;48.382;9.102;2023-05-07T12:15:23;18.40;99.90
30851;DHT22;17567;48.382;9.102;2023-05-07T12:20:24;18.40;99.90
30851;DHT22;17567;48.382;9.102;2023-05-07T12:25:25;18.30;99.90
30851;DHT22;17567;48.382;9.102;2023-05-07T12:30:26;18.20;99.90
30851;DHT22;17567;48.382;9.102;2023-05-07T12:35:37;18.20;99.90
30851;DHT22;17567;48.382;9.102;2023-05-07T12:45:41;18.10;99.90
30851;DHT22;17567;48.382;9.102;2023-05-07T12:50:42;18.10;99.90
30851;DHT22;17567;48.382;9.102;2023-05-07T12:55:45;17.90;99.90
30851;DHT22;17567;48.382;9.102;2023-05-07T13:00:50;17.80;99.90
30851;DHT22;17567;48.382;9.102;2023-05-07T13:05:52;17.60;99.90
30851;DHT22;17567;48.382;9.102;2023-05-07T13:10:52;16.90;99.90
30851;DHT22;17567;48.382;9.102;2023-05-07T13:15:56;16.40;99.90
30851;DHT22;17567;48.382;9.102;2023-05-07T13:20:57;16.20;99.90
30851;DHT22;17567;48.382;9.102;2023-05-07T13:25:58;15.80;99.90
30851;DHT22;17567;48.382;9.102;2023-05-07T13:30:58;15.60;99.90
30851;DHT22;17567;48.382;9.102;2023-05-07T13:35:59;15.30;99.90
30851;DHT22;17567;48.382;9.102;2023-05-07T13:41:01;15.10;99.90
30851;DHT22;17567;48.382;9.102;2023-05-07T13:46:02;15.10;99.90
30851;DHT22;17567;48.382;9.102;2023-05-07T13:51:02;14.90;99.90
30851;DHT22;17567;48.382;9.102;2023-05-07T13:56:03;14.60;99.90
30851;DHT22;17567;48.382;9.102;2023-05-07T14:06:06;14.50;99.90
30851;DHT22;17567;48.382;9.102;2023-05-07T14:11:07;14.50;99.90
30851;DHT22;17567;48.382;9.102;2023-05-07T14:16:08;14.40;99.90
30851;DHT22;17567;48.382;9.102;2023-05-07T14:21:08;14.50;99.90
30851;DHT22;17567;48.382;9.102;2023-05-07T14:26:10;14.60;99.90
30851;DHT22;17567;48.382;9.102;2023-05-07T14:31:11;14.60;99.90
30851;DHT22;17567;48.382;9.102;2023-05-07T14:36:12;14.50;99.90
30851;DHT22;17567;48.382;9.102;2023-05-07T14:41:13;14.50;99.90
30851;DHT22;17567;48.382;9.102;2023-05-07T14:46:14;14.70;99.90
30851;DHT22;17567;48.382;9.102;2023-05-07T14:51:15;14.80;99.90
30851;DHT22;17567;48.382;9.102;2023-05-07T14:56:16;14.90;99.90
30851;DHT22;17567;48.382;9.102;2023-05-07T15:01:17;15.00;99.90
30851;DHT22;17567;48.382;9.102;2023-05-07T15:06:18;15.00;99.90
30851;DHT22;17567;48.382;9.102;2023-05-07T15:11:18;15.10;99.90
30851;DHT22;17567;48.382;9.102;2023-05-07T15:16:19;15.30;99.90
30851;DHT22;17567;48.382;9.102;2023-05-07T15:21:20;15.50;99.90
30851;DHT22;17567;48.382;9.102;2023-05-07T15:26:21;15.80;99.90
30851;DHT22;17567;48.382;9.102;2023-05-07T15:31:23;15.80;99.90
30851;DHT22;17567;48.382;9.102;2023-05-07T15:36:24;15.90;99.90
30851;DHT22;17567;48.382;9.102;2023-05-07T15:41:25;15.70;99.90
30851;DHT22;17567;48.382;9.102;2023-05-07T15:46:26;15.50;99.90
30851;DHT22;17567;48.382;9.102;2023-05-07T15:51:27;15.60;99.90
30851;DHT22;17567;48.382;9.102;2023-05-07T15:56:30;15.80;99.90
30851;DHT22;17567;48.382;9.102;2023-05-07T16:01:33;15.90;99.90
30851;DHT22;17567;48.382;9.102;2023-05-07T16:06:34;15.90;99.90
30851;DHT22;17567;48.382;9.102;2023-05-07T16:11:35;16.00;99.90
30851;DHT22;17567;48.382;9.102;2023-05-07T16:16:36;16.00;99.90
30851;DHT22;17567;48.382;9.102;2023-05-07T16:21:37;16.00;99.90
30851;DHT22;17567;48.382;9.102;2023-05-07T16:26:38;16.00;99.90
30851;DHT22;17567;48.382;9.102;2023-05-07T16:31:39;16.10;99.90
30851;DHT22;17567;48.382;9.102;2023-05-07T16:36:40;16.00;99.90
30851;DHT22;17567;48.382;9.102;2023-05-07T16:41:40;16.00;99.90
30851;DHT22;17567;48.382;9.102;2023-05-07T16:46:41;16.00;99.90
30851;DHT22;17567;48.382;9.102;2023-05-07T16:51:42;16.00;99.90
30851;DHT22;17567;48.382;9.102;2023-05-07T16:56:43;16.00;99.90
30851;DHT22;17567;48.382;9.102;2023-05-07T17:01:44;15.70;99.90
30851;DHT22;17567;48.382;9.102;2023-05-07T17:06:45;15.70;99.90
30851;DHT22;17567;48.382;9.102;2023-05-07T17:11:46;15.60;99.90
30851;DHT22;17567;48.382;9.102;2023-05-07T17:16:47;15.40;99.90
30851;DHT22;17567;48.382;9.102;2023-05-07T17:21:48;15.40;99.90
30851;DHT22;17567;48.382;9.102;2023-05-07T17:26:48;15.40;99.90
30851;DHT22;17567;48.382;9.102;2023-05-07T17:31:49;15.40;99.90
30851;DHT22;17567;48.382;9.102;2023-05-07T17:36:50;15.20;99.90
30851;DHT22;17567;48.382;9.102;2023-05-07T17:41:51;15.30;99.90
30851;DHT22;17567;48.382;9.102;2023-05-07T17:46:51;15.20;99.90
30851;DHT22;17567;48.382;9.102;2023-05-07T17:51:52;15.00;99.90
30851;DHT22;17567;48.382;9.102;2023-05-07T17:56:53;15.00;99.90
30851;DHT22;17567;48.382;9.102;2023-05-07T18:01:53;15.10;99.90
30851;DHT22;17567;48.382;9.102;2023-05-07T18:06:54;15.00;99.90
30851;DHT22;17567;48.382;9.102;2023-05-07T18:11:56;15.00;99.90
30851;DHT22;17567;48.382;9.102;2023-05-07T18:16:57;15.00;99.90
30851;DHT22;17567;48.382;9.102;2023-05-07T18:21:58;15.00;99.90
30851;DHT22;17567;48.382;9.102;2023-05-07T18:26:59;14.90;99.90
30851;DHT22;17567;48.382;9.102;2023-05-07T18:31:59;14.90;99.90
30851;DHT22;17567;48.382;9.102;2023-05-07T18:37:00;14.90;99.90
30851;DHT22;17567;48.382;9.102;2023-05-07T18:42:01;14.80;99.90
30851;DHT22;17567;48.382;9.102;2023-05-07T18:47:04;14.70;99.90
30851;DHT22;17567;48.382;9.102;2023-05-07T18:52:05;14.60;99.90
30851;DHT22;17567;48.382;9.102;2023-05-07T18:57:06;14.60;99.90
30851;DHT22;17567;48.382;9.102;2023-05-07T19:02:07;14.50;99.90
30851;DHT22;17567;48.382;9.102;2023-05-07T19:07:07;14.50;99.90
30851;DHT22;17567;48.382;9.102;2023-05-07T19:12:08;14.50;99.90
30851;DHT22;17567;48.382;9.102;2023-05-07T19:17:09;14.50;99.90
30851;DHT22;17567;48.382;9.102;2023-05-07T19:22:10;14.40;99.90
30851;DHT22;17567;48.382;9.102;2023-05-07T19:57:21;14.40;99.90
30851;DHT22;17567;48.382;9.102;2023-05-07T20:32:33;14.00;99.90
30851;DHT22;17567;48.382;9.102;2023-05-07T20:37:34;13.90;99.90
30851;DHT22;17567;48.382;9.102;2023-05-07T20:42:35;13.80;99.90
30851;DHT22;17567;48.382;9.102;2023-05-07T20:47:36;13.80;99.90
30851;DHT22;17567;48.382;9.102;2023-05-07T20:52:37;13.70;99.90
30851;DHT22;17567;48.382;9.102;2023-05-07T20:57:37;13.70;99.90
30851;DHT22;17567;48.382;9.102;2023-05-07T21:02:38;13.60;99.90
30851;DHT22;17567;48.382;9.102;2023-05-07T21:07:39;13.60;99.90
30851;DHT22;17567;48.382;9.102;2023-05-07T21:12:40;13.60;99.90
30851;DHT22;17567;48.382;9.102;2023-05-07T21:17:41;13.50;99.90
30851;DHT22;17567;48.382;9.102;2023-05-07T21:22:41;13.50;99.90
30851;DHT22;17567;48.382;9.102;2023-05-07T21:27:42;13.50;99.90
30851;DHT22;17567;48.382;9.102;2023-05-07T21:32:43;13.60;99.90
30851;DHT22;17567;48.382;9.102;2023-05-07T21:37:43;13.60;99.90
30851;DHT22;17567;48.382;9.102;2023-05-07T21:42:44;13.60;99.90
30851;DHT22;17567;48.382;9.102;2023-05-07T21:47:45;13.60;99.90
30851;DHT22;17567;48.382;9.102;2023-05-07T21:52:46;13.60;99.90
30851;DHT22;17567;48.382;9.102;2023-05-07T21:57:46;13.60;99.90
30851;DHT22;17567;48.382;9.102;2023-05-07T22:02:47;13.50;99.90
30851;DHT22;17567;48.382;9.102;2023-05-07T22:07:48;13.40;99.90
30851;DHT22;17567;48.382;9.102;2023-05-07T22:12:49;13.40;99.90
30851;DHT22;17567;48.382;9.102;2023-05-07T22:17:49;13.40;99.90
30851;DHT22;17567;48.382;9.102;2023-05-07T22:22:52;13.40;99.90
30851;DHT22;17567;48.382;9.102;2023-05-07T22:27:52;13.40;99.90
30851;DHT22;17567;48.382;9.102;2023-05-07T22:32:53;13.50;99.90
30851;DHT22;17567;48.382;9.102;2023-05-07T22:37:54;13.50;99.90
30851;DHT22;17567;48.382;9.102;2023-05-07T22:42:55;13.50;99.90
30851;DHT22;17567;48.382;9.102;2023-05-07T22:47:55;13.40;99.90
30851;DHT22;17567;48.382;9.102;2023-05-07T22:52:56;13.40;99.90
30851;DHT22;17567;48.382;9.102;2023-05-07T22:57:57;13.50;99.90
30851;DHT22;17567;48.382;9.102;2023-05-07T23:02:58;13.50;99.90
30851;DHT22;17567;48.382;9.102;2023-05-07T23:07:58;13.40;99.90
30851;DHT22;17567;48.382;9.102;2023-05-07T23:13:00;13.30;99.90
30851;DHT22;17567;48.382;9.102;2023-05-07T23:18:00;13.30;99.90
30851;DHT22;17567;48.382;9.102;2023-05-07T23:23:01;13.30;99.90
30851;DHT22;17567;48.382;9.102;2023-05-07T23:28:03;13.30;99.90
30851;DHT22;17567;48.382;9.102;2023-05-07T23:33:04;13.40;99.90
30851;DHT22;17567;48.382;9.102;2023-05-07T23:38:04;13.40;99.90
30851;DHT22;17567;48.382;9.102;2023-05-07T23:43:05;13.40;99.90
30851;DHT22;17567;48.382;9.102;2023-05-07T23:48:06;13.30;99.90
30851;DHT22;17567;48.382;9.102;2023-05-07T23:53:07;13.20;99.90
30851;DHT22;17567;48.382;9.102;2023-05-07T23:58:07;13.20;99.90
